Time;durP1;ratioP1;P1;durP2;ratioP2;P2;SDS_P1;SDS_P2;PMS_P1;PMS_P2;Temp;Humidity;BMP_temperature;BMP_pressure;BME280_temperature;BME280_humidity;BME280_pressure;Samples;Min_cycle;Max_cycle;Signal;HPM_P1;HPM_P2
2022/01/11 00:01:08;;;;;;;72.17;33.70;;;;;;;-6.44;76.13;102091.99;3440573;81;21014;-71
2022/01/11 00:06:10;;;;;;;66.15;32.83;;;;;;;-6.44;75.92;102093.26;3439317;81;20967;-71
2022/01/11 00:10:55;;;;;;;69.27;34.45;;;;;;;-6.47;75.73;102094.56;3385900;82;21517;-70
2022/01/11 00:15:48;;;;;;;60.58;31.62;;;;;;;-6.48;75.94;102098.73;3425529;82;21005;-71
2022/01/11 00:20:40;;;;;;;67.70;33.10;;;;;;;-6.47;75.94;102101.81;3308628;83;21545;-70
2022/01/11 00:25:36;;;;;;;70.83;31.77;;;;;;;-6.49;76.22;102103.28;3354402;83;21460;-71
2022/01/11 00:30:32;;;;;;;69.97;32.28;;;;;;;-6.53;75.97;102103.67;3386429;82;21108;-73
2022/01/11 00:35:27;;;;;;;65.92;33.67;;;;;;;-6.57;76.03;102108.77;3392505;82;21688;-72
2022/01/11 00:40:15;;;;;;;62.93;31.00;;;;;;;-6.60;75.84;102112.25;3338990;82;21543;-71
2022/01/11 00:45:10;;;;;;;73.52;32.93;;;;;;;-6.63;76.11;102118.61;3320683;84;20966;-71
2022/01/11 00:50:03;;;;;;;65.42;31.85;;;;;;;-6.65;76.14;102122.58;3383947;83;21250;-72
2022/01/11 00:54:55;;;;;;;70.83;31.97;;;;;;;-6.66;76.38;102124.22;3436972;82;20975;-72
2022/01/11 00:59:46;;;;;;;60.58;31.02;;;;;;;-6.68;75.89;102114.31;3437214;83;21400;-71
2022/01/11 01:04:37;;;;;;;67.90;31.70;;;;;;;-6.71;75.92;102112.70;3404591;83;21034;-71
2022/01/11 01:09:37;;;;;;;66.82;32.58;;;;;;;-6.73;75.83;102120.12;3414211;82;20998;-71
2022/01/11 01:14:22;;;;;;;66.97;32.90;;;;;;;-6.73;76.10;102116.70;3410358;82;20982;-72
2022/01/11 01:19:14;;;;;;;65.97;29.70;;;;;;;-6.73;76.57;102116.70;3396857;83;20991;-72
2022/01/11 01:24:10;;;;;;;62.35;32.23;;;;;;;-6.74;76.08;102123.78;3411053;82;21251;-72
2022/01/11 01:29:01;;;;;;;60.92;32.25;;;;;;;-6.75;76.89;102120.33;3433255;82;20994;-71
2022/01/11 01:33:53;;;;;;;57.13;30.70;;;;;;;-6.73;76.96;102121.77;3433909;82;20983;-72
2022/01/11 01:38:45;;;;;;;58.33;30.57;;;;;;;-6.74;76.89;102130.11;3457889;83;20939;-71
2022/01/11 01:43:36;;;;;;;60.60;31.02;;;;;;;-6.76;77.12;102131.20;3397411;82;21030;-71
2022/01/11 01:48:29;;;;;;;67.10;32.53;;;;;;;-6.77;77.34;102124.70;3471009;82;22024;-72
2022/01/11 01:53:22;;;;;;;64.80;31.07;;;;;;;-6.81;77.51;102132.70;3415048;82;21049;-71
2022/01/11 01:58:15;;;;;;;61.37;29.95;;;;;;;-6.82;77.47;102138.47;3390569;82;20990;-71
2022/01/11 02:03:11;;;;;;;62.50;31.55;;;;;;;-6.86;77.43;102141.41;3432918;82;20925;-71
2022/01/11 02:08:05;;;;;;;62.43;29.90;;;;;;;-6.92;76.95;102150.12;3424180;82;21571;-71
2022/01/11 02:12:57;;;;;;;62.43;29.80;;;;;;;-6.95;77.18;102153.94;3445406;82;21939;-70
2022/01/11 02:17:49;;;;;;;61.60;31.30;;;;;;;-7.00;77.15;102156.33;3437041;82;20974;-71
2022/01/11 02:22:40;;;;;;;58.60;30.37;;;;;;;-7.05;76.85;102163.39;3390038;84;20967;-72
2022/01/11 02:27:32;;;;;;;58.48;28.83;;;;;;;-7.09;77.17;102175.17;3305564;84;21064;-71
2022/01/11 02:32:24;;;;;;;67.25;31.68;;;;;;;-7.07;77.72;102167.76;3358383;84;20991;-71
2022/01/11 02:37:16;;;;;;;62.13;30.08;;;;;;;-7.06;77.95;102180.58;3354968;84;23290;-72
2022/01/11 02:42:09;;;;;;;60.63;29.02;;;;;;;-7.08;77.76;102174.45;3380000;84;21507;-71
2022/01/11 02:47:03;;;;;;;57.53;28.83;;;;;;;-7.11;77.68;102174.11;3343810;84;21033;-72
2022/01/11 02:51:56;;;;;;;56.40;31.70;;;;;;;-7.15;77.52;102184.62;3289356;85;21010;-72
2022/01/11 02:56:47;;;;;;;59.05;30.68;;;;;;;-7.19;77.30;102182.45;3256799;86;21204;-73
2022/01/11 03:01:39;;;;;;;55.35;28.12;;;;;;;-7.23;77.32;102185.38;3246277;86;22250;-72
2022/01/11 03:06:31;;;;;;;52.55;26.70;;;;;;;-7.24;77.02;102186.09;3264434;85;21033;-72
2022/01/11 03:11:24;;;;;;;61.40;29.48;;;;;;;-7.24;77.38;102187.36;3320793;85;21037;-72
2022/01/11 03:16:17;;;;;;;60.20;28.45;;;;;;;-7.23;77.30;102189.17;3247239;85;21500;-72
2022/01/11 03:21:09;;;;;;;61.08;28.77;;;;;;;-7.25;77.26;102193.16;3265939;85;21237;-71
2022/01/11 03:26:03;;;;;;;57.60;29.32;;;;;;;-7.27;77.14;102193.36;3257941;85;21188;-72
2022/01/11 03:30:56;;;;;;;63.92;31.02;;;;;;;-7.27;77.36;102199.30;3246236;86;21109;-71
2022/01/11 03:35:49;;;;;;;58.33;28.10;;;;;;;-7.29;77.65;102201.66;3251828;85;21502;-72
2022/01/11 03:40:42;;;;;;;55.58;28.02;;;;;;;-7.30;77.44;102210.33;3260257;85;21139;-73
2022/01/11 03:45:35;;;;;;;58.02;29.10;;;;;;;-7.33;77.54;102213.42;3256021;85;21005;-72
2022/01/11 03:50:30;;;;;;;58.25;29.27;;;;;;;-7.40;77.23;102217.25;3410099;83;20979;-72
2022/01/11 03:55:32;;;;;;;59.30;28.42;;;;;;;-7.44;77.25;102216.34;3344835;83;21446;-71
2022/01/11 04:00:19;;;;;;;51.65;26.95;;;;;;;-7.45;77.65;102217.09;3405412;84;20940;-72
2022/01/11 04:05:13;;;;;;;55.28;27.37;;;;;;;-7.48;77.50;102225.58;3355442;83;20916;-72
2022/01/11 04:10:08;;;;;;;48.92;26.15;;;;;;;-7.50;77.63;102230.45;3318404;84;20981;-71
2022/01/11 04:14:59;;;;;;;57.43;27.90;;;;;;;-7.56;76.91;102233.56;3308726;85;21968;-72
2022/01/11 04:19:52;;;;;;;52.30;27.05;;;;;;;-7.59;77.45;102252.16;3404152;83;21101;-71
2022/01/11 04:24:44;;;;;;;58.80;29.45;;;;;;;-7.60;77.23;102244.40;3342519;84;22026;-72
2022/01/11 04:29:35;;;;;;;54.35;29.02;;;;;;;-7.64;77.06;102244.41;3337390;85;21533;-72
2022/01/11 04:34:28;;;;;;;56.53;29.48;;;;;;;-7.68;76.95;102248.22;3300943;85;21246;-71
2022/01/11 04:39:22;;;;;;;53.40;26.68;;;;;;;-7.73;76.90;102258.15;3281142;85;21497;-72
2022/01/11 04:44:14;;;;;;;56.13;26.68;;;;;;;-7.78;76.93;102255.83;3325681;85;20942;-71
2022/01/11 04:49:06;;;;;;;58.15;28.52;;;;;;;-7.80;76.89;102259.44;3348073;83;21039;-72
2022/01/11 04:53:58;;;;;;;57.33;29.95;;;;;;;-7.80;77.14;102258.17;3442201;82;20939;-72
2022/01/11 04:58:49;;;;;;;58.60;28.87;;;;;;;-7.81;77.10;102266.49;3438031;82;20996;-72
2022/01/11 05:03:41;;;;;;;59.23;29.63;;;;;;;-7.72;77.29;102270.06;3425662;82;21081;-72
2022/01/11 05:08:33;;;;;;;58.78;28.17;;;;;;;-7.56;78.02;102271.83;3386308;83;21504;-72
2022/01/11 05:13:26;;;;;;;68.75;31.10;;;;;;;-7.38;78.22;102278.08;3435786;82;20962;-72
2022/01/11 05:18:20;;;;;;;73.70;34.25;;;;;;;-7.22;78.93;102275.28;3426421;83;21018;-72
2022/01/11 05:23:14;;;;;;;73.22;33.95;;;;;;;-7.05;79.47;102277.54;3390538;82;21352;-71
2022/01/11 05:28:06;;;;;;;70.25;36.77;;;;;;;-6.91;79.79;102263.17;3347307;84;21219;-72
2022/01/11 05:32:57;;;;;;;69.17;34.10;;;;;;;-6.79;79.98;102263.65;3369641;82;20976;-72
2022/01/11 05:37:49;;;;;;;74.87;33.42;;;;;;;-6.70;80.09;102261.24;3389061;82;21069;-71
2022/01/11 05:42:43;;;;;;;68.30;33.90;;;;;;;-6.66;80.13;102258.31;3409470;83;21033;-72
2022/01/11 05:47:36;;;;;;;76.45;35.88;;;;;;;-6.61;80.16;102256.30;3381265;83;20962;-71
2022/01/11 05:52:27;;;;;;;74.53;35.25;;;;;;;-6.61;80.17;102267.31;3334199;84;23175;-73
2022/01/11 05:57:19;;;;;;;72.47;34.23;;;;;;;-6.63;80.15;102273.84;3363266;84;21483;-71
2022/01/11 06:02:11;;;;;;;82.37;38.75;;;;;;;-6.63;80.17;102277.63;3322870;85;21530;-72
2022/01/11 06:07:02;;;;;;;74.77;34.88;;;;;;;-6.65;80.14;102282.89;3297587;84;21090;-72
2022/01/11 06:11:56;;;;;;;73.35;34.60;;;;;;;-6.65;80.10;102299.34;3241324;85;21034;-71
2022/01/11 06:16:48;;;;;;;74.60;36.63;;;;;;;-6.66;80.08;102301.31;3318555;85;21155;-71
2022/01/11 06:21:40;;;;;;;58.70;31.07;;;;;;;-6.64;79.99;102312.50;3264374;86;21139;-71
2022/01/11 06:26:32;;;;;;;74.77;36.00;;;;;;;-6.62;79.96;102318.63;3260924;86;20975;-72
2022/01/11 06:31:24;;;;;;;71.75;36.70;;;;;;;-6.63;79.88;102324.44;3284525;85;20959;-72
2022/01/11 06:36:15;;;;;;;69.77;35.80;;;;;;;-6.60;79.99;102345.03;3266706;86;20999;-71
2022/01/11 06:41:07;;;;;;;68.35;33.58;;;;;;;-6.60;80.00;102353.89;3342758;85;22111;-72
2022/01/11 06:45:59;;;;;;;55.20;26.93;;;;;;;-6.58;80.09;102365.08;3274458;85;20995;-71
2022/01/11 06:50:50;;;;;;;59.00;32.63;;;;;;;-6.58;80.21;102378.99;3338628;85;20962;-71
2022/01/11 06:55:42;;;;;;;68.92;35.03;;;;;;;-6.57;80.06;102388.37;3357750;84;20974;-72
2022/01/11 07:00:33;;;;;;;67.92;33.58;;;;;;;-6.59;79.83;102401.59;3349092;84;20986;-72
2022/01/11 07:05:26;;;;;;;60.52;31.65;;;;;;;-6.61;79.87;102403.94;3372645;84;21018;-72
2022/01/11 07:10:18;;;;;;;63.73;31.42;;;;;;;-6.60;79.89;102412.09;3292247;84;21002;-71
2022/01/11 07:15:11;;;;;;;50.73;25.40;;;;;;;-6.58;79.86;102422.02;3282492;85;21009;-72
2022/01/11 07:20:05;;;;;;;55.55;29.70;;;;;;;-6.58;79.98;102419.48;3338178;85;21057;-72
2022/01/11 07:24:56;;;;;;;65.78;29.45;;;;;;;-6.53;80.03;102428.50;3333372;83;21358;-72
2022/01/11 07:29:49;;;;;;;51.77;28.52;;;;;;;-6.46;80.01;102436.77;3336165;84;21083;-71
2022/01/11 07:34:40;;;;;;;60.55;28.77;;;;;;;-6.43;80.04;102442.17;3261079;85;21057;-72
2022/01/11 07:39:32;;;;;;;59.65;28.25;;;;;;;-6.41;79.99;102439.08;3333958;84;21149;-71
2022/01/11 07:44:24;;;;;;;52.93;27.75;;;;;;;-6.30;80.14;102441.92;3303798;85;21752;-72
2022/01/11 07:49:16;;;;;;;54.27;28.02;;;;;;;-6.17;80.24;102440.01;3273032;85;20991;-71
2022/01/11 07:54:07;;;;;;;54.20;29.70;;;;;;;-6.00;80.23;102440.63;3338973;85;21002;-72
2022/01/11 07:58:59;;;;;;;46.35;26.25;;;;;;;-5.81;80.27;102428.31;3300464;85;21014;-72
2022/01/11 08:03:52;;;;;;;50.08;26.10;;;;;;;-5.59;80.15;102432.84;3273459;84;20966;-72
2022/01/11 08:08:44;;;;;;;42.67;23.80;;;;;;;-5.37;79.88;102426.81;3384079;82;20947;-71
2022/01/11 08:13:36;;;;;;;56.18;27.80;;;;;;;-5.18;79.81;102432.63;3384400;84;21945;-72
2022/01/11 08:18:27;;;;;;;51.00;27.87;;;;;;;-5.02;79.68;102432.64;3405931;83;22155;-72
2022/01/11 08:23:19;;;;;;;49.98;26.37;;;;;;;-4.88;79.52;102440.42;3388555;84;21449;-72
2022/01/11 08:28:10;;;;;;;45.35;24.98;;;;;;;-4.75;79.52;102443.55;3340194;83;21017;-72
2022/01/11 08:33:04;;;;;;;52.78;27.13;;;;;;;-4.48;79.55;102440.47;3336908;84;20971;-71
2022/01/11 08:37:57;;;;;;;48.87;24.18;;;;;;;-4.35;79.40;102445.18;3388429;84;21452;-71
2022/01/11 08:42:49;;;;;;;46.35;25.02;;;;;;;-4.19;79.40;102446.79;3364358;84;21115;-71
2022/01/11 08:47:40;;;;;;;50.98;27.93;;;;;;;-3.99;79.22;102442.11;3356756;83;20979;-71
2022/01/11 08:52:32;;;;;;;46.77;26.85;;;;;;;-3.80;79.11;102444.02;3357871;83;21053;-73
2022/01/11 08:57:25;;;;;;;44.15;25.40;;;;;;;-3.71;78.97;102447.50;3356115;84;20997;-72
2022/01/11 09:02:17;;;;;;;48.60;26.05;;;;;;;-3.67;78.92;102466.12;3287832;85;20959;-70
2022/01/11 09:07:08;;;;;;;50.25;25.97;;;;;;;-3.58;79.12;102470.87;3251401;85;21551;-71
2022/01/11 09:12:03;;;;;;;53.40;28.60;;;;;;;-3.51;78.91;102461.84;3304612;85;21002;-71
2022/01/11 09:16:57;;;;;;;52.53;26.42;;;;;;;-3.35;79.27;102459.59;3296791;85;20990;-71
2022/01/11 09:21:49;;;;;;;48.78;27.98;;;;;;;-3.19;79.26;102457.84;3292477;86;21037;-70
2022/01/11 09:26:41;;;;;;;46.23;28.77;;;;;;;-3.04;78.89;102461.38;3297391;85;20982;-70
2022/01/11 09:31:32;;;;;;;50.73;28.75;;;;;;;-2.92;78.58;102453.70;3276181;85;21566;-71
2022/01/11 09:36:24;;;;;;;50.78;29.07;;;;;;;-2.77;78.31;102454.30;3221933;86;21062;-70
2022/01/11 09:41:17;;;;;;;49.98;27.80;;;;;;;-2.59;77.96;102447.59;3292561;85;20953;-71
2022/01/11 09:46:08;;;;;;;52.43;29.37;;;;;;;-2.19;78.20;102445.06;3237357;85;21564;-70
2022/01/11 09:51:01;;;;;;;53.75;30.85;;;;;;;-1.92;77.93;102446.41;3387424;83;21001;-70
2022/01/11 09:55:54;;;;;;;64.87;33.67;;;;;;;-2.03;77.79;102446.16;3405745;83;21167;-71
2022/01/11 10:00:47;;;;;;;46.55;26.15;;;;;;;-2.06;77.97;102444.20;3401673;83;21562;-71
2022/01/11 10:05:40;;;;;;;49.27;25.17;;;;;;;-2.14;78.08;102440.03;3354558;84;21266;-72
2022/01/11 10:10:34;;;;;;;46.95;26.85;;;;;;;-2.22;78.18;102440.94;3396027;83;21397;-73
2022/01/11 10:15:34;;;;;;;48.92;27.87;;;;;;;-2.28;78.57;102448.01;3429536;82;21081;-72
2022/01/11 10:20:36;;;;;;;51.28;27.85;;;;;;;-2.25;78.73;102441.91;3392247;83;20972;-73
2022/01/11 10:25:47;;;;;;;67.10;37.73;;;;;;;-2.25;78.78;102447.01;3435779;82;21006;-71
2022/01/11 10:30:41;;;;;;;45.60;25.77;;;;;;;-2.23;78.76;102449.35;3419803;83;20977;-71
2022/01/11 10:35:42;;;;;;;52.40;28.67;;;;;;;-2.21;78.91;102442.75;3455968;82;20966;-71
2022/01/11 10:40:46;;;;;;;48.95;29.40;;;;;;;-2.26;78.69;102443.95;3438046;83;20990;-71
2022/01/11 10:45:44;;;;;;;57.70;31.07;;;;;;;-2.23;79.26;102444.26;3403609;83;20935;-71
2022/01/11 10:50:40;;;;;;;60.67;30.00;;;;;;;-2.21;79.32;102437.66;3429927;82;22113;-70
2022/01/11 10:55:34;;;;;;;58.67;30.23;;;;;;;-2.18;79.20;102450.66;3439183;82;21009;-71
2022/01/11 11:00:33;;;;;;;55.83;29.85;;;;;;;-2.15;79.34;102450.97;3424649;82;20989;-72
2022/01/11 11:05:30;;;;;;;47.10;29.18;;;;;;;-2.16;79.35;102448.80;3360423;84;21492;-72
2022/01/11 11:10:47;;;;;;;52.53;29.77;;;;;;;-2.15;79.36;102450.97;3359542;83;20985;-72
2022/01/11 11:15:40;;;;;;;53.83;32.00;;;;;;;-2.12;79.39;102441.08;3367746;84;20971;-71
2022/01/11 11:20:34;;;;;;;53.45;29.18;;;;;;;-2.14;79.22;102452.78;3305168;85;20944;-72
2022/01/11 11:25:27;;;;;;;61.30;31.70;;;;;;;-2.12;79.49;102453.44;3320214;84;21520;-70
2022/01/11 11:30:19;;;;;;;59.00;30.30;;;;;;;-2.05;79.52;102451.11;3398546;83;21001;-70
2022/01/11 11:35:13;;;;;;;51.70;28.85;;;;;;;-2.04;79.49;102459.29;3361537;82;21151;-72
2022/01/11 11:40:13;;;;;;;55.70;30.30;;;;;;;-2.13;79.35;102459.66;3327898;84;21076;-73
2022/01/11 11:45:21;;;;;;;61.10;30.77;;;;;;;-2.15;79.52;102456.95;3402076;84;20935;-71
2022/01/11 11:50:21;;;;;;;61.45;32.70;;;;;;;-2.21;79.32;102460.59;3323302;84;21011;-72
2022/01/11 11:55:25;;;;;;;64.97;31.17;;;;;;;-2.24;79.71;102465.38;3398918;82;21349;-72
2022/01/11 12:00:30;;;;;;;56.83;33.65;;;;;;;-2.22;79.80;102467.31;3436810;83;21047;-73
2022/01/11 12:05:47;;;;;;;59.08;33.15;;;;;;;-2.19;79.75;102465.45;3424974;83;20980;-72
2022/01/11 12:10:52;;;;;;;66.53;33.53;;;;;;;-2.23;79.77;102469.74;3383183;82;21030;-73
2022/01/11 12:15:43;;;;;;;75.47;39.73;;;;;;;-2.24;79.93;102467.55;3391063;82;21013;-74
2022/01/11 12:20:51;;;;;;;77.97;38.67;;;;;;;-2.23;80.07;102468.47;3393457;82;20943;-76
2022/01/11 12:25:42;;;;;;;;;;;;;;;-2.25;80.05;102476.31;3455554;82;21588;-74
2022/01/11 12:30:34;;;;;;;85.77;38.70;;;;;;;-2.28;80.08;102469.67;3431836;83;20355;-75
2022/01/11 12:35:25;;;;;;;83.37;42.13;;;;;;;-2.28;80.33;102465.84;3440754;82;20979;-70
2022/01/11 12:40:29;;;;;;;77.03;39.73;;;;;;;-2.23;80.34;102477.38;3441592;82;20992;-76
2022/01/11 12:46:00;;;;;;;77.32;38.48;;;;;;;-2.22;80.37;102468.97;3433301;82;21002;-73
2022/01/11 12:50:59;;;;;;;80.12;45.55;;;;;;;-2.22;80.30;102468.97;3388096;82;21009;-71
2022/01/11 12:55:56;;;;;;;75.65;40.63;;;;;;;-2.23;80.45;102466.80;3413713;82;20970;-71
2022/01/11 13:00:47;;;;;;;76.20;41.53;;;;;;;-2.21;80.43;102475.88;3438573;82;20964;-70
2022/01/11 13:05:40;;;;;;;92.37;46.33;;;;;;;-2.21;80.64;102475.88;3394352;81;21459;-71
2022/01/11 13:10:31;;;;;;;76.10;40.33;;;;;;;-2.21;80.67;102474.60;3374914;81;20990;-72
2022/01/11 13:15:35;;;;;;;75.40;41.33;;;;;;;-2.21;80.74;102470.78;3424120;81;21456;-73
2022/01/11 13:20:28;;;;;;;78.02;39.03;;;;;;;-2.24;80.77;102464.11;3357080;82;21037;-71
2022/01/11 13:25:53;;;;;;;68.15;40.05;;;;;;;-2.27;80.84;102470.17;3385651;82;21492;-71
2022/01/11 13:30:51;;;;;;;71.37;37.10;;;;;;;-2.31;80.95;102463.53;3326551;83;21547;-71
2022/01/11 13:35:42;;;;;;;66.97;35.75;;;;;;;-2.36;80.95;102466.00;3332819;83;20956;-71
2022/01/11 13:40:33;;;;;;;75.00;37.67;;;;;;;-2.37;80.99;102469.28;3319965;83;22069;-72
2022/01/11 13:45:44;;;;;;;78.10;46.35;;;;;;;-2.38;81.11;102460.22;3368356;82;21027;-72
2022/01/11 13:50:51;;;;;;;65.30;35.00;;;;;;;-2.41;81.16;102462.11;3323267;84;20939;-72
2022/01/11 13:55:42;;;;;;;64.97;38.27;;;;;;;-2.41;81.32;102452.30;3324634;84;21477;-70
2022/01/11 14:00:36;;;;;;;71.55;37.33;;;;;;;-2.44;81.23;102451.61;3279742;84;21047;-70
2022/01/11 14:05:29;;;;;;;65.42;35.20;;;;;;;-2.46;81.34;102454.39;3340723;84;21361;-73
2022/01/11 14:10:21;;;;;;;51.53;27.30;;;;;;;-2.46;81.23;102454.39;3341037;84;20962;-72
2022/01/11 14:15:16;;;;;;;61.73;32.80;;;;;;;-2.47;81.07;102454.23;3300034;84;21089;-71
2022/01/11 14:20:12;;;;;;;51.02;28.73;;;;;;;-2.48;81.08;102455.00;3298469;84;20940;-72
2022/01/11 14:25:10;;;;;;;65.70;32.85;;;;;;;-2.46;81.26;102457.32;3329141;84;20951;-72
2022/01/11 14:30:10;;;;;;;;;;;;;;;-2.45;81.27;102456.55;3300292;84;21112;-72
2022/01/11 14:35:07;;;;;;;88.58;45.92;;;;;;;-2.46;81.26;102453.11;3283649;85;20142;-73
2022/01/11 14:40:02;;;;;;;74.82;39.23;;;;;;;-2.48;81.21;102469.91;3274931;85;21049;-72
2022/01/11 14:45:12;;;;;;;73.72;38.25;;;;;;;-2.47;81.33;102464.04;3280397;85;21049;-72
2022/01/11 14:50:10;;;;;;;70.50;36.13;;;;;;;-2.49;81.48;102468.09;3347403;84;21436;-71
2022/01/11 14:55:03;;;;;;;68.78;36.00;;;;;;;-2.48;81.59;102469.91;3282588;84;21341;-70
2022/01/11 14:59:54;;;;;;;71.60;37.08;;;;;;;-2.50;81.51;102479.94;3309019;85;21003;-70
2022/01/11 15:04:47;;;;;;;62.53;35.08;;;;;;;-2.49;81.41;102475.73;3300403;85;21016;-70
2022/01/11 15:09:42;;;;;;;68.07;36.83;;;;;;;-2.49;81.54;102475.73;3283064;85;20998;-70
2022/01/11 15:14:36;;;;;;;61.55;35.23;;;;;;;-2.49;81.56;102479.55;3249312;85;21003;-70
2022/01/11 15:19:28;;;;;;;69.12;34.55;;;;;;;-2.48;81.57;102480.48;3271169;84;21066;-70
2022/01/11 15:24:20;;;;;;;66.30;35.95;;;;;;;-2.49;81.53;102483.38;3352797;84;20976;-70
2022/01/11 15:29:17;;;;;;;70.70;40.20;;;;;;;-2.46;81.59;102487.89;3307314;84;21000;-70
2022/01/11 15:34:09;;;;;;;73.00;39.90;;;;;;;-2.46;81.53;102489.16;3287137;84;21488;-70
2022/01/11 15:39:03;;;;;;;63.13;35.48;;;;;;;-2.47;81.50;102495.88;3321680;84;37840;-71
2022/01/11 15:43:54;;;;;;;59.77;31.17;;;;;;;-2.47;81.52;102492.06;3303437;85;21523;-70
2022/01/11 15:48:49;;;;;;;74.53;37.25;;;;;;;-2.49;81.49;102498.66;3302578;84;22140;-70
2022/01/11 15:53:39;;;;;;;68.52;33.98;;;;;;;-2.50;81.61;102505.80;3366912;82;20951;-71
2022/01/11 15:58:30;;;;;;;60.30;32.98;;;;;;;-2.50;81.60;102507.06;3296309;84;21510;-71
2022/01/11 16:03:22;;;;;;;65.05;33.98;;;;;;;-2.52;81.64;102510.73;3292979;83;21007;-71
2022/01/11 16:08:13;;;;;;;57.20;33.90;;;;;;;-2.54;81.65;102499.50;3351613;82;21939;-70
2022/01/11 16:13:07;;;;;;;56.37;31.05;;;;;;;-2.51;81.75;102500.16;3324998;82;21013;-70
2022/01/11 16:17:58;;;;;;;66.10;36.13;;;;;;;-2.51;81.76;102512.89;3312404;84;20995;-71
2022/01/11 16:22:50;;;;;;;61.48;30.95;;;;;;;-2.52;81.78;102508.56;3363982;82;22088;-71
2022/01/11 16:27:47;;;;;;;68.10;43.42;;;;;;;-2.52;81.56;102511.12;3347701;82;21597;-71
2022/01/11 16:32:34;;;;;;;58.30;37.10;;;;;;;-2.52;81.54;102518.37;3350606;82;20989;-71
2022/01/11 16:37:25;;;;;;;79.95;44.98;;;;;;;-2.51;81.53;102517.61;3351130;82;20942;-70
2022/01/11 16:47:28;;;;;;;88.15;64.97;;;;;;;-2.47;81.43;102513.71;3393900;82;21034;-73
2022/01/11 16:52:19;;;;;;;62.15;36.93;;;;;;;-2.47;81.20;102509.89;3336422;83;21469;-71
2022/01/11 16:57:11;;;;;;;44.23;25.57;;;;;;;-2.46;81.20;102511.70;3371203;83;21828;-71
2022/01/11 17:02:04;;;;;;;155.78;93.45;;;;;;;-2.46;81.12;102511.70;3277834;83;20994;-69
2022/01/11 17:06:56;;;;;;;47.10;25.90;;;;;;;-2.43;81.11;102512.36;3276234;84;21582;-72
2022/01/11 17:11:47;;;;;;;54.95;30.52;;;;;;;-2.41;80.96;102514.72;3362813;82;20982;-70
2022/01/11 17:16:38;;;;;;;32.53;20.77;;;;;;;-2.40;81.02;102512.29;3336747;83;20992;-70
2022/01/11 17:21:29;;;;;;;36.10;20.40;;;;;;;-2.38;80.88;102521.01;3399586;81;21287;-69
2022/01/11 17:26:20;;;;;;;31.93;19.73;;;;;;;-2.39;80.62;102524.29;3414001;81;21444;-69
2022/01/11 17:31:11;;;;;;;34.73;20.65;;;;;;;-2.41;80.36;102528.73;3455864;81;20970;-70
2022/01/11 17:36:04;;;;;;;28.47;17.67;;;;;;;-2.41;80.36;102528.73;3395792;81;21002;-70
2022/01/11 17:40:56;;;;;;;32.10;20.32;;;;;;;-2.45;80.15;102531.34;3409169;81;21586;-70
2022/01/11 17:45:47;;;;;;;28.25;17.73;;;;;;;-2.44;80.00;102539.88;3459324;81;22166;-69
2022/01/11 17:50:38;;;;;;;27.55;15.13;;;;;;;-2.45;79.79;102538.06;3295300;83;21013;-70
2022/01/11 17:55:29;;;;;;;33.45;20.60;;;;;;;-2.44;79.96;102531.86;3373706;82;21678;-70
2022/01/11 18:00:23;;;;;;;30.72;19.00;;;;;;;-2.46;79.66;102542.27;3295277;83;20935;-70
2022/01/11 18:05:15;;;;;;;41.02;25.20;;;;;;;-2.46;79.62;102541.00;3327934;84;21514;-70
2022/01/11 18:10:09;;;;;;;22.62;12.60;;;;;;;-2.45;79.47;102549.18;3357654;82;21510;-70
2022/01/11 18:15:02;;;;;;;26.00;15.80;;;;;;;-2.46;79.08;102551.19;3342653;82;21024;-70
2022/01/11 18:19:53;;;;;;;24.80;16.45;;;;;;;-2.46;79.05;102555.01;3331259;82;20936;-70
2022/01/11 18:24:44;;;;;;;38.42;20.32;;;;;;;-2.45;79.00;102560.64;3399320;82;21102;-70
2022/01/11 18:29:36;;;;;;;30.50;17.90;;;;;;;-2.49;78.85;102554.70;3375414;84;20962;-70
2022/01/11 18:34:27;;;;;;;26.27;16.67;;;;;;;-2.48;78.91;102561.60;3280282;84;22373;-70
2022/01/11 18:39:19;;;;;;;21.00;12.15;;;;;;;-2.49;78.79;102558.52;3337465;83;20994;-70
2022/01/11 18:44:10;;;;;;;20.92;12.37;;;;;;;-2.48;78.70;102564.15;3399668;82;20927;-72
2022/01/11 18:49:01;;;;;;;34.27;16.95;;;;;;;-2.48;78.48;102566.70;3311227;82;24936;-69
2022/01/11 18:54:00;;;;;;;20.72;12.23;;;;;;;-2.48;78.48;102566.70;3277294;85;21301;-69
2022/01/11 18:58:52;;;;;;;26.00;14.53;;;;;;;-2.45;78.36;102569.56;3323159;85;22024;-68
2022/01/11 19:03:43;;;;;;;31.42;18.85;;;;;;;-2.45;78.27;102564.81;3275351;85;21014;-70
2022/01/11 19:08:35;;;;;;;28.05;18.17;;;;;;;-2.45;78.01;102558.45;3321027;83;20945;-69
2022/01/11 19:13:26;;;;;;;26.50;13.43;;;;;;;-2.46;77.90;102562.65;3350638;85;21473;-69
2022/01/11 19:18:17;;;;;;;22.67;13.18;;;;;;;-2.46;77.79;102556.66;3280872;85;21161;-69
2022/01/11 19:23:08;;;;;;;27.77;17.75;;;;;;;-2.45;77.78;102561.92;3298115;85;21953;-69
2022/01/11 19:28:01;;;;;;;36.77;21.85;;;;;;;-2.45;77.75;102556.82;3276925;85;21016;-69
2022/01/11 19:32:52;;;;;;;34.80;20.90;;;;;;;-2.45;77.45;102559.37;3321734;85;21580;-69
2022/01/11 19:37:43;;;;;;;41.92;23.67;;;;;;;-2.45;77.48;102558.45;3290304;85;21019;-69
2022/01/11 19:42:34;;;;;;;34.13;21.00;;;;;;;-2.45;77.18;102563.54;3306784;83;20964;-70
2022/01/11 19:47:26;;;;;;;38.30;19.95;;;;;;;-2.44;77.27;102568.79;3397850;82;37892;-70
2022/01/11 19:52:19;;;;;;;24.27;15.40;;;;;;;-2.44;77.31;102561.15;3374639;83;20990;-70
2022/01/11 19:57:11;;;;;;;20.20;13.18;;;;;;;-2.43;76.85;102575.70;3407409;82;20966;-70
2022/01/11 20:02:03;;;;;;;21.93;14.03;;;;;;;-2.42;76.83;102574.05;3409335;83;20958;-69
2022/01/11 20:06:54;;;;;;;26.37;13.35;;;;;;;-2.42;76.57;102573.66;3400735;83;20917;-69
2022/01/11 20:11:46;;;;;;;20.90;11.57;;;;;;;-2.44;76.43;102571.34;3448932;83;21082;-69
2022/01/11 20:16:39;;;;;;;28.38;15.85;;;;;;;-2.44;76.19;102570.06;3446426;83;20991;-70
2022/01/11 20:21:38;;;;;;;35.28;25.12;;;;;;;-2.46;76.18;102566.47;3391074;83;21158;-70
2022/01/11 20:31:34;;;;;;;29.30;18.57;;;;;;;-2.45;76.04;102569.56;3428090;82;21036;-70
2022/01/11 20:36:28;;;;;;;33.25;18.67;;;;;;;-2.44;75.91;102571.72;3371566;82;21171;-70
2022/01/11 20:41:18;;;;;;;58.13;28.80;;;;;;;-2.43;76.19;102564.59;3428553;82;21033;-69
2022/01/11 20:46:10;;;;;;;23.60;11.30;;;;;;;-2.42;76.27;102561.30;3370028;83;20964;-68
2022/01/11 20:51:12;;;;;;;24.52;15.93;;;;;;;-2.44;75.79;102566.24;3406738;81;21032;-69
2022/01/11 20:56:01;;;;;;;22.82;12.50;;;;;;;-2.49;75.25;102572.53;3397358;83;21056;-69
2022/01/11 21:00:53;;;;;;;17.23;11.18;;;;;;;-2.50;75.22;102566.54;3359870;84;21471;-69
2022/01/11 21:05:49;;;;;;;13.83;8.58;;;;;;;-2.51;75.05;102580.01;3328845;83;20970;-70
2022/01/11 21:10:40;;;;;;;20.70;12.20;;;;;;;-2.52;74.71;102583.33;3392561;83;21017;-71
2022/01/11 21:20:23;;;;;;;17.60;10.55;;;;;;;-2.53;74.90;102588.27;3353068;82;20987;-72
2022/01/11 21:25:15;;;;;;;22.80;14.55;;;;;;;-2.52;74.73;102585.87;3379552;83;21090;-70
2022/01/11 21:30:10;;;;;;;25.15;16.37;;;;;;;-2.50;74.89;102588.58;3378551;84;21010;-71
2022/01/11 21:35:01;;;;;;;15.88;9.90;;;;;;;-2.49;74.86;102594.17;3339022;84;20960;-71
2022/01/11 21:39:52;;;;;;;22.07;11.93;;;;;;;-2.51;75.07;102582.56;3374180;83;20982;-71
2022/01/11 21:44:44;;;;;;;18.60;10.88;;;;;;;-2.50;74.82;102578.00;3347411;82;21829;-71
2022/01/11 21:49:37;;;;;;;18.67;11.12;;;;;;;-2.49;74.77;102578.89;3314904;82;22253;-71
2022/01/11 21:54:28;;;;;;;17.82;10.25;;;;;;;-2.49;74.84;102575.08;3424374;81;20942;-70
2022/01/11 21:59:19;;;;;;;23.07;11.80;;;;;;;-2.48;75.04;102573.45;3457909;81;21504;-71
2022/01/11 22:04:10;;;;;;;16.15;10.53;;;;;;;-2.49;74.90;102573.80;3410606;81;20967;-71
2022/01/11 22:09:02;;;;;;;19.55;11.48;;;;;;;-2.49;74.75;102583.98;3421529;81;20962;-71
2022/01/11 22:14:04;;;;;;;28.87;15.53;;;;;;;-2.51;74.72;102580.39;3396080;81;21119;-71
2022/01/11 22:18:46;;;;;;;26.97;13.40;;;;;;;-2.51;74.70;102579.13;3423727;81;21078;-72
2022/01/11 22:23:37;;;;;;;22.10;12.20;;;;;;;-2.51;74.82;102572.37;3428940;81;21010;-72
2022/01/11 22:28:28;;;;;;;24.87;12.95;;;;;;;-2.50;74.86;102574.19;3436742;81;20958;-71